createdAt,value
2018-04-11T00:01:51.845Z,63.24
2018-04-11T00:04:21.391Z,63.38
2018-04-11T00:06:50.998Z,63.58
2018-04-11T00:09:20.547Z,63.79
2018-04-11T00:11:50.103Z,64.53
2018-04-11T00:14:19.815Z,65.07
2018-04-11T00:16:49.440Z,65.75
2018-04-11T00:19:19.031Z,66.28
2018-04-11T00:21:48.351Z,66.63
2018-04-11T00:24:17.882Z,66.92
2018-04-11T00:26:47.900Z,67.31
2018-04-11T00:29:17.757Z,67.55
2018-04-11T00:31:47.319Z,67.64
2018-04-11T00:34:16.799Z,67.63
2018-04-11T00:36:46.354Z,67.80
2018-04-11T00:39:15.930Z,67.98
2018-04-11T00:41:45.490Z,68.09
2018-04-11T00:44:15.044Z,68.24
2018-04-11T00:46:44.929Z,68.27
2018-04-11T00:49:14.476Z,68.45
2018-04-11T00:51:44.339Z,68.58
2018-04-11T00:54:14.189Z,68.65
2018-04-11T00:56:43.771Z,68.80
2018-04-11T00:59:13.623Z,69.00
2018-04-11T01:01:43.728Z,68.99
2018-04-11T01:04:13.592Z,68.85
2018-04-11T01:06:43.173Z,68.82
2018-04-11T01:09:13.023Z,68.66
2018-04-11T01:11:42.595Z,68.80
2018-04-11T01:14:12.448Z,68.81
2018-04-11T01:16:42.342Z,68.99
2018-04-11T01:19:12.279Z,68.74
2018-04-11T01:21:41.848Z,68.80
2018-04-11T01:24:11.696Z,68.94
2018-04-11T01:26:41.252Z,69.01
2018-04-11T01:29:11.094Z,69.13
2018-04-11T01:31:40.751Z,69.06
2018-04-11T01:34:10.635Z,69.30
2018-04-11T01:36:40.482Z,69.51
2018-04-11T01:39:10.343Z,69.58
2018-04-11T01:41:39.907Z,69.56
2018-04-11T01:44:09.504Z,69.80
2018-04-11T01:46:39.137Z,69.85
2018-04-11T01:49:08.790Z,69.94
2018-04-11T01:51:38.356Z,70.19
2018-04-11T01:54:08.185Z,70.26
2018-04-11T01:56:37.761Z,70.44
2018-04-11T01:59:07.636Z,70.31
2018-04-11T02:01:37.663Z,70.38
2018-04-11T02:04:07.007Z,70.59
2018-04-11T02:06:36.852Z,70.75
2018-04-11T02:09:06.423Z,70.84
2018-04-11T02:11:36.093Z,70.73
2018-04-11T02:14:05.447Z,71.00
2018-04-11T02:16:35.317Z,71.02
2018-04-11T02:19:04.904Z,70.84
2018-04-11T02:21:34.527Z,70.94
2018-04-11T02:24:04.369Z,71.22
2018-04-11T02:26:34.259Z,71.34
2018-04-11T02:29:03.887Z,71.77
2018-04-11T02:31:33.739Z,71.80
2018-04-11T02:34:03.509Z,71.65
2018-04-11T02:36:33.359Z,71.93
2018-04-11T02:39:02.839Z,71.69
2018-04-11T02:41:32.643Z,71.64
2018-04-11T02:44:02.540Z,71.64
2018-04-11T02:46:32.404Z,71.71
2018-04-11T02:49:02.248Z,71.78
2018-04-11T02:51:32.139Z,71.71
2018-04-11T02:54:01.975Z,71.74
2018-04-11T02:56:31.829Z,71.76
2018-04-11T02:59:01.675Z,71.80
2018-04-11T03:01:31.537Z,71.89
2018-04-11T03:04:01.397Z,72.14
2018-04-11T03:06:31.090Z,72.22
2018-04-11T03:09:01.644Z,72.12
2018-04-11T03:11:31.586Z,72.10
2018-04-11T03:14:01.212Z,72.22
2018-04-11T03:16:31.212Z,72.05
2018-04-11T03:19:01.213Z,71.94
2018-04-11T03:21:31.117Z,71.95
2018-04-11T03:24:01.001Z,72.15
2018-04-11T03:26:30.891Z,72.38
2018-04-11T03:29:00.736Z,72.38
2018-04-11T03:31:30.384Z,72.61
2018-04-11T03:34:00.280Z,72.76
2018-04-11T03:36:30.164Z,72.82
2018-04-11T03:39:00.013Z,72.83
2018-04-11T03:41:29.859Z,73.22
2018-04-11T03:43:59.805Z,73.24
2018-04-11T03:46:29.804Z,73.38
2018-04-11T03:48:59.679Z,73.55
2018-04-11T03:51:29.529Z,73.61
2018-04-11T03:53:59.363Z,73.52
2018-04-11T03:56:29.276Z,73.64
2018-04-11T03:58:59.135Z,73.81
2018-04-11T04:01:28.984Z,74.01
2018-04-11T04:03:58.886Z,74.07
2018-04-11T04:06:28.742Z,74.33
2018-04-11T04:08:58.617Z,74.51
2018-04-11T04:11:28.469Z,74.63
2018-04-11T04:14:09.739Z,74.80
2018-04-11T04:16:50.335Z,74.56
2018-04-11T04:22:24.692Z,74.68
2018-04-11T04:24:54.591Z,74.98
2018-04-11T04:27:24.641Z,75.13
2018-04-11T04:29:54.520Z,74.82
2018-04-11T04:32:24.358Z,74.96
2018-04-11T04:34:54.229Z,75.11
2018-04-11T04:37:24.119Z,75.22
2018-04-11T04:39:53.977Z,75.65
2018-04-11T04:42:23.827Z,75.68
2018-04-11T04:44:53.716Z,75.77
2018-04-11T04:47:23.569Z,75.68
2018-04-11T04:49:54.476Z,75.55
2018-04-11T04:52:24.120Z,75.39
2018-04-11T04:54:54.000Z,75.29
2018-04-11T04:57:23.916Z,75.33
2018-04-11T04:59:54.076Z,75.20
2018-04-11T05:02:23.710Z,74.94
2018-04-11T05:04:53.701Z,75.10
2018-04-11T05:07:23.575Z,74.70
2018-04-11T05:09:53.495Z,74.66
2018-04-11T05:12:23.340Z,74.72
2018-04-11T05:14:53.199Z,74.56
2018-04-11T05:17:23.113Z,74.37
2018-04-11T05:19:53.028Z,74.08
2018-04-11T05:22:22.980Z,74.24
2018-04-11T05:24:52.624Z,74.41
2018-04-11T05:27:22.483Z,74.19
2018-04-11T05:29:52.360Z,73.86
2018-04-11T05:32:22.089Z,73.62
2018-04-11T05:34:51.988Z,73.49
2018-04-11T05:37:22.140Z,73.41
2018-04-11T05:39:51.777Z,73.29
2018-04-11T05:42:21.631Z,73.18
2018-04-11T05:44:51.613Z,73.13
2018-04-11T05:47:21.459Z,72.88
2018-04-11T05:49:51.317Z,72.78
2018-04-11T05:52:21.433Z,72.60
2018-04-11T05:54:51.466Z,72.38
2018-04-11T05:57:21.357Z,72.01
2018-04-11T05:59:51.235Z,71.89
2018-04-11T06:02:21.147Z,71.57
2018-04-11T06:04:51.032Z,71.19
2018-04-11T06:07:20.926Z,71.14
2018-04-11T06:09:50.986Z,71.03
2018-04-11T06:12:20.862Z,70.76
2018-04-11T06:14:50.728Z,70.75
2018-04-11T06:17:20.603Z,70.57
2018-04-11T06:19:50.452Z,70.31
2018-04-11T06:22:20.313Z,70.01
2018-04-11T06:24:50.213Z,69.82
2018-04-11T06:27:20.157Z,69.66
2018-04-11T06:29:50.047Z,69.74
2018-04-11T06:32:19.912Z,69.63
2018-04-11T06:34:49.760Z,69.46
2018-04-11T06:37:19.623Z,69.36
2018-04-11T06:39:49.195Z,68.93
2018-04-11T06:42:19.064Z,68.72
2018-04-11T06:44:48.908Z,68.36
2018-04-11T06:47:18.775Z,67.63
2018-04-11T06:49:48.849Z,67.57
2018-04-11T06:52:18.404Z,67.13
2018-04-11T06:54:48.387Z,66.81
2018-04-11T06:57:17.759Z,66.53
2018-04-11T06:59:47.409Z,66.21
2018-04-11T07:02:17.272Z,66.24
2018-04-11T07:04:47.258Z,66.03
2018-04-11T07:07:17.124Z,66.39
2018-04-11T07:09:47.045Z,65.52
2018-04-11T07:12:16.921Z,65.22
2018-04-11T07:14:52.271Z,65.31
2018-04-11T07:17:22.109Z,65.61
2018-04-11T07:19:51.729Z,64.67
2018-04-11T07:22:21.486Z,64.67
2018-04-11T07:24:51.428Z,64.65
2018-04-11T07:27:21.016Z,64.31
2018-04-11T07:29:50.599Z,63.66
2018-04-11T07:32:20.263Z,63.37
2018-04-11T07:34:52.749Z,63.45
2018-04-11T07:37:22.326Z,63.28
2018-04-11T07:39:51.975Z,62.74
2018-04-11T07:42:21.824Z,62.11
2018-04-11T07:44:51.454Z,61.75
2018-04-11T07:47:21.261Z,61.51
2018-04-11T07:49:50.828Z,61.03
2018-04-11T07:52:20.204Z,60.58
2018-04-11T07:54:49.771Z,60.27
2018-04-11T07:57:19.360Z,59.98
2018-04-11T07:59:48.944Z,59.69
2018-04-11T08:02:18.523Z,59.26
2018-04-11T08:04:48.063Z,58.80
2018-04-11T08:07:17.677Z,58.45
2018-04-11T08:09:47.328Z,57.99
2018-04-11T08:12:16.899Z,57.62
2018-04-11T08:14:46.472Z,57.68
2018-04-11T08:17:16.092Z,57.20
2018-04-11T08:19:45.429Z,57.12
2018-04-11T08:22:14.924Z,56.97
2018-04-11T08:24:44.553Z,56.83
2018-04-11T08:27:14.120Z,56.73
2018-04-11T08:29:43.932Z,56.61
2018-04-11T08:32:13.383Z,55.61
2018-04-11T08:34:42.942Z,55.99
2018-04-11T08:37:12.549Z,55.20
2018-04-11T08:39:42.302Z,55.52
2018-04-11T08:42:11.872Z,55.09
2018-04-11T08:44:41.469Z,54.96
2018-04-11T08:47:11.027Z,53.75
2018-04-11T08:49:40.595Z,53.71
2018-04-11T08:52:10.164Z,53.64
2018-04-11T08:54:39.879Z,53.70
2018-04-11T08:57:09.365Z,53.77
2018-04-11T08:59:38.930Z,53.81
2018-04-11T09:02:08.504Z,53.97
2018-04-11T09:04:38.067Z,53.60
2018-04-11T09:07:07.644Z,53.69
2018-04-11T09:09:37.394Z,53.54
2018-04-11T09:12:06.983Z,53.63
2018-04-11T09:14:36.535Z,53.11
2018-04-11T09:17:06.109Z,53.01
2018-04-11T09:19:35.738Z,52.73
2018-04-11T09:22:05.666Z,52.23
2018-04-11T09:24:35.332Z,52.12
2018-04-11T09:27:04.921Z,51.77
2018-04-11T09:29:34.523Z,51.79
2018-04-11T09:32:04.093Z,51.38
2018-04-11T09:34:33.684Z,50.81
2018-04-11T09:37:03.247Z,49.94
2018-04-11T09:39:33.617Z,50.07
2018-04-11T09:42:03.292Z,48.46
2018-04-11T09:44:32.875Z,48.05
2018-04-11T09:47:02.511Z,47.19
2018-04-11T09:49:32.083Z,46.27
2018-04-11T09:52:01.652Z,45.97
2018-04-11T09:54:31.227Z,45.20
2018-04-11T09:57:00.800Z,44.38
2018-04-11T09:59:30.171Z,44.46
2018-04-11T10:01:59.511Z,44.18
2018-04-11T10:04:29.068Z,42.53
2018-04-11T10:06:58.696Z,41.83
2018-04-11T10:09:28.436Z,41.66
2018-04-11T10:11:58.096Z,41.20
2018-04-11T10:14:27.677Z,40.45
2018-04-11T10:16:57.304Z,40.44
2018-04-11T10:19:26.865Z,39.59
2018-04-11T10:21:56.227Z,39.53
2018-04-11T10:24:25.757Z,38.74
2018-04-11T10:26:55.431Z,37.83
2018-04-11T10:29:25.001Z,36.29
2018-04-11T10:31:54.678Z,35.01
2018-04-11T10:34:24.512Z,34.40
2018-04-11T10:36:54.079Z,31.83
2018-04-11T10:39:23.643Z,31.70
2018-04-11T10:41:53.202Z,31.70
2018-04-11T10:44:22.823Z,32.94
2018-04-11T10:46:52.374Z,33.00
2018-04-11T10:49:22.006Z,31.67
2018-04-11T10:51:51.578Z,30.84
2018-04-11T10:54:21.275Z,30.66
2018-04-11T10:56:50.839Z,30.00
2018-04-11T10:59:20.466Z,29.04
2018-04-11T11:01:49.835Z,29.65
2018-04-11T11:04:19.401Z,29.62
2018-04-11T11:06:48.987Z,30.02
2018-04-11T11:09:18.451Z,30.31
2018-04-11T11:11:48.038Z,31.17
2018-04-11T11:14:17.720Z,30.09
2018-04-11T11:16:47.096Z,30.02
2018-04-11T11:19:16.653Z,29.93
2018-04-11T11:21:46.206Z,29.90
2018-04-11T11:24:15.495Z,28.94
2018-04-11T11:26:45.029Z,26.87
2018-04-11T11:29:14.736Z,26.13
2018-04-11T11:31:44.296Z,26.05
2018-04-11T11:34:13.647Z,24.29
2018-04-11T11:36:43.017Z,23.81
2018-04-11T11:39:12.359Z,22.91
2018-04-11T11:41:41.708Z,22.49
2018-04-11T11:44:11.268Z,22.40
2018-04-11T11:46:40.830Z,21.61
2018-04-11T11:49:10.389Z,21.06
2018-04-11T11:51:39.764Z,19.39
2018-04-11T11:54:09.311Z,19.96
2018-04-11T11:56:38.882Z,19.90
2018-04-11T11:59:08.446Z,20.85
2018-04-11T12:01:38.040Z,21.52
2018-04-11T12:04:10.519Z,20.65
2018-04-11T12:06:40.099Z,20.01
2018-04-11T12:09:09.944Z,19.28
2018-04-11T12:11:39.519Z,19.06
2018-04-11T12:14:09.334Z,18.53
2018-04-11T12:16:38.901Z,16.62
2018-04-11T12:19:08.544Z,16.00
2018-04-11T12:21:38.121Z,16.23
2018-04-11T12:24:07.702Z,16.07
2018-04-11T12:26:37.330Z,16.35
2018-04-11T12:29:06.893Z,18.25
2018-04-11T12:31:36.486Z,17.75
2018-04-11T12:34:06.048Z,17.64
2018-04-11T12:36:35.608Z,17.00
2018-04-11T12:39:04.644Z,16.57
2018-04-11T12:41:34.285Z,17.16
2018-04-11T12:44:03.892Z,18.73
2018-04-11T12:46:34.256Z,19.34
2018-04-11T12:49:03.825Z,19.23
2018-04-11T12:51:33.428Z,19.28
2018-04-11T12:54:02.840Z,19.44
2018-04-11T12:56:32.407Z,19.97
2018-04-11T12:59:02.093Z,19.54
2018-04-11T13:01:31.716Z,21.56
2018-04-11T13:04:01.296Z,20.71
2018-04-11T13:06:30.947Z,20.80
2018-04-11T13:09:00.563Z,21.25
2018-04-11T13:11:30.137Z,22.40
2018-04-11T13:14:00.260Z,22.60
2018-04-11T13:16:29.856Z,23.18
2018-04-11T13:18:59.592Z,23.77
2018-04-11T13:21:29.335Z,23.21
2018-04-11T13:23:59.272Z,22.95
2018-04-11T13:26:28.862Z,22.40
2018-04-11T13:28:58.537Z,22.31
2018-04-11T13:31:28.170Z,22.25
2018-04-11T13:33:57.753Z,23.02
2018-04-11T13:36:27.407Z,23.04
2018-04-11T13:38:56.767Z,23.10
2018-04-11T13:41:26.364Z,22.74
2018-04-11T13:43:55.752Z,22.95
2018-04-11T13:46:25.121Z,22.91
2018-04-11T13:48:54.478Z,23.29
2018-04-11T13:51:24.052Z,23.09
2018-04-11T13:53:53.596Z,23.10
2018-04-11T13:56:22.974Z,24.07
2018-04-11T13:58:52.743Z,24.07
2018-04-11T14:01:22.389Z,23.84
2018-04-11T14:03:51.993Z,23.92
2018-04-11T14:06:21.610Z,24.69
2018-04-11T14:08:51.985Z,24.59
2018-04-11T14:11:21.687Z,24.16
2018-04-11T14:13:51.387Z,24.33
2018-04-11T14:16:20.744Z,24.43
2018-04-11T14:18:50.359Z,24.32
2018-04-11T14:21:20.125Z,23.95
2018-04-11T14:23:49.792Z,23.67
2018-04-11T14:26:19.569Z,23.73
2018-04-11T14:28:48.931Z,23.91
2018-04-11T14:31:18.503Z,24.82
2018-04-11T14:33:48.137Z,25.53
2018-04-11T14:36:17.648Z,25.73
2018-04-11T14:38:47.254Z,26.24
2018-04-11T14:41:16.836Z,27.41
2018-04-11T14:43:46.403Z,27.58
2018-04-11T14:46:16.015Z,27.48
2018-04-11T14:48:45.596Z,27.87
2018-04-11T14:51:15.199Z,28.56
2018-04-11T14:53:44.868Z,29.22
2018-04-11T14:56:14.437Z,29.54
2018-04-11T14:58:44.267Z,29.29
2018-04-11T15:01:13.894Z,29.38
2018-04-11T15:03:43.459Z,29.55
2018-04-11T15:06:16.127Z,29.34
2018-04-11T15:08:45.942Z,29.44
2018-04-11T15:11:15.563Z,29.98
2018-04-11T15:13:45.143Z,30.12
2018-04-11T15:16:14.730Z,30.63
2018-04-11T15:18:44.370Z,30.34
2018-04-11T15:21:14.030Z,30.70
2018-04-11T15:23:43.655Z,31.16
2018-04-11T15:26:16.101Z,31.55
2018-04-11T15:28:45.683Z,31.43
2018-04-11T15:31:15.386Z,31.91
2018-04-11T15:33:44.953Z,32.44
2018-04-11T15:36:14.684Z,32.79
2018-04-11T15:38:44.271Z,33.44
2018-04-11T15:41:13.833Z,34.00
2018-04-11T15:43:43.399Z,34.62
2018-04-11T15:46:24.188Z,35.03
2018-04-11T15:48:53.868Z,35.25
2018-04-11T15:51:23.436Z,35.56
2018-04-11T15:53:53.089Z,35.37
2018-04-11T15:56:22.649Z,35.16
2018-04-11T15:58:52.216Z,35.21
2018-04-11T16:01:21.915Z,36.28
2018-04-11T16:03:51.505Z,37.02
2018-04-11T16:06:21.136Z,37.64
2018-04-11T16:08:50.694Z,38.33
2018-04-11T16:11:20.259Z,38.08
2018-04-11T16:13:49.867Z,38.43
2018-04-11T16:16:19.495Z,38.96
2018-04-11T16:18:49.157Z,39.20
2018-04-11T16:21:19.241Z,39.00
2018-04-11T16:23:48.954Z,39.17
2018-04-11T16:26:18.757Z,39.36
2018-04-11T16:28:48.585Z,39.67
2018-04-11T16:31:18.248Z,39.60
2018-04-11T16:33:47.823Z,39.75
2018-04-11T16:36:17.451Z,39.97
2018-04-11T16:38:47.140Z,40.11
2018-04-11T16:41:16.741Z,40.27
2018-04-11T16:43:46.316Z,40.38
2018-04-11T16:46:15.878Z,40.68
2018-04-11T16:48:45.741Z,40.78
2018-04-11T16:51:15.621Z,41.19
2018-04-11T16:53:45.112Z,41.11
2018-04-11T16:56:14.891Z,41.31
2018-04-11T16:58:44.453Z,41.68
2018-04-11T17:01:14.144Z,41.74
2018-04-11T17:03:43.706Z,42.12
2018-04-11T17:06:13.258Z,42.11
2018-04-11T17:08:42.828Z,42.44
2018-04-11T17:11:12.178Z,42.79
2018-04-11T17:13:41.755Z,43.18
2018-04-11T17:16:11.199Z,43.31
2018-04-11T17:18:40.784Z,43.54
2018-04-11T17:21:21.538Z,43.90
2018-04-11T17:24:02.003Z,44.09
2018-04-11T17:26:42.244Z,44.25
2018-04-11T17:29:22.890Z,44.42
2018-04-11T17:31:51.953Z,44.54
2018-04-11T17:34:21.532Z,44.70
2018-04-11T17:36:51.103Z,44.89
2018-04-11T17:39:20.667Z,45.06
2018-04-11T17:41:50.247Z,45.00
2018-04-11T17:44:19.839Z,45.17
2018-04-11T17:46:49.390Z,45.35
2018-04-11T17:49:18.979Z,45.47
2018-04-11T17:51:48.542Z,45.62
2018-04-11T17:54:18.107Z,45.77
2018-04-11T17:56:47.725Z,45.98
2018-04-11T17:59:17.286Z,46.12
2018-04-11T18:01:46.901Z,46.33
2018-04-11T18:04:16.451Z,46.46
2018-04-11T18:06:46.012Z,46.65
2018-04-11T18:09:15.605Z,46.84
2018-04-11T18:11:45.169Z,46.90
2018-04-11T18:14:14.724Z,47.25
2018-04-11T18:16:44.322Z,47.45
2018-04-11T18:19:13.875Z,47.58
2018-04-11T18:21:43.477Z,47.74
2018-04-11T18:24:13.097Z,47.95
2018-04-11T18:26:42.647Z,48.03
2018-04-11T18:29:12.285Z,48.06
2018-04-11T18:31:41.881Z,48.16
2018-04-11T18:34:12.039Z,48.40
2018-04-11T18:36:41.625Z,48.40
2018-04-11T18:39:11.547Z,48.48
2018-04-11T18:41:40.879Z,48.50
2018-04-11T18:44:10.424Z,48.45
2018-04-11T18:46:40.073Z,48.46
2018-04-11T18:49:09.821Z,48.42
2018-04-11T18:51:39.375Z,48.55
2018-04-11T18:54:09.338Z,48.42
2018-04-11T18:56:38.905Z,48.41
2018-04-11T18:59:08.492Z,48.45
2018-04-11T19:01:38.274Z,48.66
2018-04-11T19:04:07.832Z,48.67
2018-04-11T19:06:37.392Z,48.82
2018-04-11T19:09:06.967Z,48.94
2018-04-11T19:11:36.528Z,48.92
2018-04-11T19:14:05.814Z,49.04
2018-04-11T19:16:35.531Z,49.13
2018-04-11T19:19:05.023Z,49.20
2018-04-11T19:21:34.645Z,49.27
2018-04-11T19:24:04.249Z,49.37
2018-04-11T19:26:33.617Z,49.42
2018-04-11T19:29:03.401Z,49.46
2018-04-11T19:31:32.739Z,49.47
2018-04-11T19:34:02.301Z,49.57
2018-04-11T19:36:31.868Z,49.81
2018-04-11T19:39:01.432Z,49.88
2018-04-11T19:41:30.991Z,50.02
2018-04-11T19:44:00.139Z,50.03
2018-04-11T19:46:29.877Z,49.95
2018-04-11T19:48:59.399Z,49.86
2018-04-11T19:51:28.931Z,50.06
2018-04-11T19:53:58.382Z,50.19
2018-04-11T19:56:27.947Z,50.14
2018-04-11T19:58:57.536Z,50.07
2018-04-11T20:01:27.101Z,50.08
2018-04-11T20:03:56.527Z,50.20
2018-04-11T20:06:26.092Z,50.21
2018-04-11T20:08:55.371Z,50.31
2018-04-11T20:11:24.703Z,50.51
2018-04-11T20:13:54.127Z,50.68
2018-04-11T20:16:23.672Z,50.92
2018-04-11T20:18:52.812Z,51.28
2018-04-11T20:21:22.500Z,51.60
2018-04-11T20:23:51.904Z,51.44
2018-04-11T20:26:21.612Z,51.68
2018-04-11T20:28:50.888Z,51.81
2018-04-11T20:31:20.457Z,51.92
2018-04-11T20:33:49.860Z,52.00
2018-04-11T20:36:19.432Z,52.42
2018-04-11T20:38:48.769Z,52.19
2018-04-11T20:41:18.335Z,52.26
2018-04-11T20:43:47.433Z,52.30
2018-04-11T20:46:16.805Z,52.41
2018-04-11T20:48:46.447Z,52.40
2018-04-11T20:51:15.756Z,52.31
2018-04-11T20:53:45.950Z,52.26
2018-04-11T20:56:16.354Z,52.31
2018-04-11T20:58:48.126Z,52.33
2018-04-11T21:01:17.450Z,52.25
2018-04-11T21:03:46.722Z,52.33
2018-04-11T21:06:16.119Z,52.45
2018-04-11T21:08:45.714Z,52.75
2018-04-11T21:11:15.302Z,52.79
2018-04-11T21:13:44.592Z,52.81
2018-04-11T21:16:14.165Z,53.08
2018-04-11T21:18:43.747Z,53.06
2018-04-11T21:21:13.387Z,53.00
2018-04-11T21:23:42.972Z,53.19
2018-04-11T21:26:12.605Z,53.12
2018-04-11T21:28:42.169Z,53.28
2018-04-11T21:31:11.733Z,53.42
2018-04-11T21:33:41.309Z,53.60
2018-04-11T21:36:11.200Z,53.69
2018-04-11T21:38:40.854Z,53.78
2018-04-11T21:41:10.603Z,53.86
2018-04-11T21:43:40.383Z,53.90
2018-04-11T21:46:10.081Z,53.75
2018-04-11T21:48:39.691Z,53.52
2018-04-11T21:51:09.289Z,53.03
2018-04-11T21:53:38.572Z,52.84
2018-04-11T21:56:08.134Z,52.40
2018-04-11T21:58:37.812Z,52.18
2018-04-11T22:01:07.406Z,52.07
2018-04-11T22:03:37.035Z,52.08
2018-04-11T22:06:06.641Z,52.02
2018-04-11T22:08:36.201Z,52.24
2018-04-11T22:11:05.769Z,52.38
2018-04-11T22:13:35.328Z,52.47
2018-04-11T22:16:04.891Z,52.66
2018-04-11T22:18:34.488Z,52.88
2018-04-11T22:21:03.855Z,53.01
2018-04-11T22:23:33.478Z,53.28
2018-04-11T22:26:03.052Z,53.48
2018-04-11T22:28:32.661Z,53.55
2018-04-11T22:31:02.253Z,53.53
2018-04-11T22:33:31.847Z,53.60
2018-04-11T22:36:01.127Z,53.60
2018-04-11T22:38:30.553Z,53.73
2018-04-11T22:41:00.109Z,53.77
2018-04-11T22:43:29.542Z,53.93
2018-04-11T22:45:59.106Z,54.13
2018-04-11T22:48:28.725Z,54.44
2018-04-11T22:50:58.300Z,54.45
2018-04-11T22:53:28.048Z,54.58
2018-04-11T22:55:57.707Z,54.65
2018-04-11T22:58:27.465Z,54.72
2018-04-11T23:00:57.019Z,54.90
2018-04-11T23:03:26.635Z,54.93
2018-04-11T23:05:56.256Z,55.09
2018-04-11T23:08:25.811Z,55.35
2018-04-11T23:10:55.290Z,55.39
2018-04-11T23:13:24.911Z,55.39
2018-04-11T23:15:54.180Z,55.57
2018-04-11T23:18:23.528Z,55.53
2018-04-11T23:20:53.101Z,55.57
2018-04-11T23:23:22.652Z,55.65
2018-04-11T23:25:52.013Z,55.75
2018-04-11T23:28:21.595Z,56.12
2018-04-11T23:30:51.309Z,56.36
2018-04-11T23:33:20.897Z,56.54
2018-04-11T23:35:50.463Z,56.75
2018-04-11T23:38:19.875Z,56.90
2018-04-11T23:40:49.461Z,57.02
2018-04-11T23:43:19.006Z,57.27
2018-04-11T23:45:48.592Z,57.38
2018-04-11T23:48:18.300Z,57.68
2018-04-11T23:50:47.880Z,57.83
2018-04-11T23:53:17.427Z,58.05
2018-04-11T23:55:47.010Z,57.94
2018-04-11T23:58:16.593Z,58.16
